Jawor — C6YH8 — position and weather

sailwx.info

Track history (hours):
 
Tides and Currents Weather Stations Pressure Air Temp Water Temp Dewpoint Dewpoint Depression Visibility Wind Speed Wind Dir Waves Ship Positions

Jawor

Last reported at 2015-Mar-26 07:21 UTC. Time now 2015-Mar-28 05:20 UTC.
Position S 38°34' E 141°39'.

Length 229 m; draft 14.5 m.

Type: Cargo ship. MMSI: 311034100.

Date/timePositionNaut miles runAvg speedWind from/ knotsBaromVisibWave heightAir tempDewpointWater temp
2015-Mar-26 07:21S 38°34' E 141°39'3 3.9
2015-Mar-26 06:31S 38°34' E 141°43'4 3.7
2015-Mar-26 05:33S 38°35' E 141°48'4 3.7
2015-Mar-26 04:33S 38°37' E 141°52'3 3.3
2015-Mar-26 03:33S 38°38' E 141°56'3 3.4
2015-Mar-26 02:33S 38°40' E 141°60'4 3.6
2015-Mar-26 01:33S 38°42' E 142°04'4 4.4
2015-Mar-26 00:33S 38°44' E 142°09'5 4.9
2015-Mar-25 23:32S 38°46' E 142°15'5 5.3
2015-Mar-25 22:33S 38°48' E 142°21'6 6.0
2015-Mar-25 21:33S 38°49' E 142°28'7 7.0
2015-Mar-25 20:31S 38°51' E 142°37'8 7.1
2015-Mar-25 19:26S 38°53' E 142°47'138 8.7
2015-Mar-25 03:33S 39°11' E 145°44'1010.3
2015-Mar-25 02:33S 39°11' E 145°57'1110.6
2015-Mar-25 01:34S 39°12' E 146°10'1111.0
2015-Mar-25 00:33S 39°11' E 146°25'1111.1
2015-Mar-24 23:33S 39°07' E 146°38'1010.5
2015-Mar-24 22:33S 39°04' E 146°51'10 9.8
2015-Mar-24 21:34S 39°01' E 147°03'9 9.3
2015-Mar-24 20:33S 38°58' E 147°14'8410.3
2015-Mar-24 12:24S 38°21' E 148°51'8 9.8
2015-Mar-24 11:33S 38°17' E 148°59'38 9.5
2015-Mar-24 07:31S 37°54' E 149°39'8 8.5
2015-Mar-24 06:33S 37°49' E 149°47'8 8.2
2015-Mar-24 05:33S 37°44' E 149°55'9 8.5
2015-Mar-24 04:33S 37°38' E 150°03'10 9.5
2015-Mar-24 03:33S 37°29' E 150°06'1010.3
2015-Mar-24 02:33S 37°19' E 150°10'  
2015-Mar-19 22:27S 34°25' E 151°01'0 0.0
2015-Mar-19 21:24S 34°25' E 151°01'0 0.0
2015-Mar-19 20:33S 34°25' E 151°01'0 0.0
2015-Mar-19 19:33S 34°25' E 151°01'0 0.0
2015-Mar-19 18:33S 34°25' E 151°01'0 0.0
2015-Mar-19 17:33S 34°25' E 151°01'0 0.0
2015-Mar-19 12:12S 34°25' E 151°01'0 0.1
2015-Mar-19 11:21S 34°25' E 151°01'0 0.1
2015-Mar-19 10:33S 34°25' E 151°01'0 0.0
2015-Mar-19 09:33S 34°25' E 151°01'0 0.0
2015-Mar-19 08:24S 34°25' E 151°01'0 0.0
2015-Mar-19 07:12S 34°25' E 151°01'  
Track history (hours):
 
Tides and Currents Weather Stations Pressure Air Temp Water Temp Dewpoint Dewpoint Depression Visibility Wind Speed Wind Dir Waves Ship Positions

Jawor

Last reported at 2015-Mar-26 07:21 UTC. Time now 2015-Mar-28 05:20 UTC.
Position S 38°34' E 141°39'.

Length 229 m; draft 14.5 m.

Type: Cargo ship. MMSI: 311034100.

Date/timePositionNaut miles runAvg speedWind from/ knotsBaromVisibWave heightAir tempDewpointWater temp
2015-Mar-26 07:21S 38°34' E 141°39'3 3.9
2015-Mar-26 06:31S 38°34' E 141°43'4 3.7
2015-Mar-26 05:33S 38°35' E 141°48'4 3.7
2015-Mar-26 04:33S 38°37' E 141°52'3 3.3
2015-Mar-26 03:33S 38°38' E 141°56'3 3.4
2015-Mar-26 02:33S 38°40' E 141°60'4 3.6
2015-Mar-26 01:33S 38°42' E 142°04'4 4.4
2015-Mar-26 00:33S 38°44' E 142°09'5 4.9
2015-Mar-25 23:32S 38°46' E 142°15'5 5.3
2015-Mar-25 22:33S 38°48' E 142°21'6 6.0
2015-Mar-25 21:33S 38°49' E 142°28'7 7.0
2015-Mar-25 20:31S 38°51' E 142°37'8 7.1
2015-Mar-25 19:26S 38°53' E 142°47'138 8.7
2015-Mar-25 03:33S 39°11' E 145°44'1010.3
2015-Mar-25 02:33S 39°11' E 145°57'1110.6
2015-Mar-25 01:34S 39°12' E 146°10'1111.0
2015-Mar-25 00:33S 39°11' E 146°25'1111.1
2015-Mar-24 23:33S 39°07' E 146°38'1010.5
2015-Mar-24 22:33S 39°04' E 146°51'10 9.8
2015-Mar-24 21:34S 39°01' E 147°03'9 9.3
2015-Mar-24 20:33S 38°58' E 147°14'8410.3
2015-Mar-24 12:24S 38°21' E 148°51'8 9.8
2015-Mar-24 11:33S 38°17' E 148°59'38 9.5
2015-Mar-24 07:31S 37°54' E 149°39'8 8.5
2015-Mar-24 06:33S 37°49' E 149°47'8 8.2
2015-Mar-24 05:33S 37°44' E 149°55'9 8.5
2015-Mar-24 04:33S 37°38' E 150°03'10 9.5
2015-Mar-24 03:33S 37°29' E 150°06'1010.3
2015-Mar-24 02:33S 37°19' E 150°10'  
2015-Mar-19 22:27S 34°25' E 151°01'0 0.0
2015-Mar-19 21:24S 34°25' E 151°01'0 0.0
2015-Mar-19 20:33S 34°25' E 151°01'0 0.0
2015-Mar-19 19:33S 34°25' E 151°01'0 0.0
2015-Mar-19 18:33S 34°25' E 151°01'0 0.0
2015-Mar-19 17:33S 34°25' E 151°01'0 0.0
2015-Mar-19 12:12S 34°25' E 151°01'0 0.1
2015-Mar-19 11:21S 34°25' E 151°01'0 0.1
2015-Mar-19 10:33S 34°25' E 151°01'0 0.0
2015-Mar-19 09:33S 34°25' E 151°01'0 0.0
2015-Mar-19 08:24S 34°25' E 151°01'0 0.0
2015-Mar-19 07:12S 34°25' E 151°01'  

Dump ship's entire track history